weather.gov     
National Weather Service

Terminal Aerodrome Forecast
NWS Homepage
This page is being discontinued on March 12, 2014.
The same data is available at this site. Please update your bookmarks.
Thank you, and we apologize for the inconvenience.
Please send an email to SR-SRH.Webmaster@noaa.gov with any concerns.


Current Version
Previous Version:    01  02  03  04  05  06  07  08  09  10  11  12  13  14  15  16  17  18  19  20  21  
[Printable]
534
FTUS44 KOUN 192338
TAFHBR
TAF
KHBR 192338Z 2000/2024 16011KT P6SM BKN180
     FM201000 17010KT P6SM VCSH SCT050 BKN100
     FM201600 17010KT P6SM VCSH SCT025 BKN050
     FM202100 17013KT P6SM SCT035=


534
FTUS44 KOUN 192338
TAFHBR
TAF
KHBR 192338Z 2000/2024 16011KT P6SM BKN180
     FM201000 17010KT P6SM VCSH SCT050 BKN100
     FM201600 17010KT P6SM VCSH SCT025 BKN050
     FM202100 17013KT P6SM SCT035=




U.S. Dept. of Commerce
NOAA National Weather Service
1325 East West Highway
Silver Spring, MD 20910
E-mail: w-nws.webmaster@noaa.gov
Page last modified: May 16, 2007
NATIONAL WEATHER SERVICE: for Safety, for Work, for Fun - FOR LIFE